createdAt,value
2022-10-13T00:01:02.403Z,21.38
2022-10-13T00:02:06.746Z,21.4
2022-10-13T00:03:11.006Z,21.41
2022-10-13T00:04:15.287Z,21.42
2022-10-13T00:05:19.542Z,21.43
2022-10-13T00:06:23.871Z,21.42
2022-10-13T00:07:28.138Z,21.41
2022-10-13T00:08:32.386Z,21.44
2022-10-13T00:09:36.661Z,21.44
2022-10-13T00:10:43.170Z,21.45
2022-10-13T00:11:47.493Z,21.43
2022-10-13T00:12:51.782Z,21.39
2022-10-13T00:13:56.035Z,21.42
2022-10-13T00:15:00.296Z,21.41
2022-10-13T00:16:04.563Z,21.41
2022-10-13T00:17:08.904Z,21.4
2022-10-13T00:18:13.190Z,21.39
2022-10-13T00:19:17.474Z,21.39
2022-10-13T00:20:21.725Z,21.39
2022-10-13T00:21:26.046Z,21.38
2022-10-13T00:22:30.310Z,21.38
2022-10-13T00:23:34.592Z,21.33
2022-10-13T00:24:38.925Z,21.34
2022-10-13T00:25:43.180Z,21.35
2022-10-13T00:26:47.471Z,21.34
2022-10-13T00:27:51.728Z,21.32
2022-10-13T00:28:56.068Z,21.32
2022-10-13T00:30:00.584Z,21.31
2022-10-13T00:31:04.897Z,21.3
2022-10-13T00:32:09.185Z,21.33
2022-10-13T00:33:13.442Z,21.34
2022-10-13T00:34:17.796Z,21.33
2022-10-13T00:35:22.075Z,21.35
2022-10-13T00:36:26.398Z,21.34
2022-10-13T00:37:30.669Z,21.34
2022-10-13T00:38:34.936Z,21.31
2022-10-13T00:39:39.205Z,21.3
2022-10-13T00:40:43.468Z,21.29
2022-10-13T00:41:47.748Z,21.28
2022-10-13T00:42:52.037Z,21.28
2022-10-13T00:43:56.302Z,21.28
2022-10-13T00:45:00.564Z,21.28
2022-10-13T00:46:04.970Z,21.26
2022-10-13T00:47:09.228Z,21.25
2022-10-13T00:48:13.496Z,21.31
2022-10-13T00:49:17.782Z,21.32
2022-10-13T00:50:22.025Z,21.32
2022-10-13T00:51:26.319Z,21.32
2022-10-13T00:52:30.603Z,21.34
2022-10-13T00:53:34.915Z,21.3
2022-10-13T00:54:39.235Z,21.32
2022-10-13T00:55:43.486Z,21.32
2022-10-13T00:56:47.749Z,21.32
2022-10-13T00:57:51.997Z,21.29
2022-10-13T00:58:56.355Z,21.33
2022-10-13T01:00:00.676Z,21.3
2022-10-13T01:01:05.016Z,21.33
2022-10-13T01:02:09.524Z,21.3
2022-10-13T01:03:13.820Z,21.32
2022-10-13T01:04:18.137Z,21.34
2022-10-13T01:05:22.432Z,21.32
2022-10-13T01:06:26.723Z,21.3
2022-10-13T01:07:30.966Z,21.28
2022-10-13T01:08:35.237Z,21.28
2022-10-13T01:09:39.544Z,21.31
2022-10-13T01:10:43.810Z,21.33
2022-10-13T01:11:48.073Z,21.29
2022-10-13T01:12:52.340Z,21.29
2022-10-13T01:13:56.618Z,21.3
2022-10-13T01:15:00.884Z,21.31
2022-10-13T01:16:05.131Z,21.3
2022-10-13T01:17:09.445Z,21.26
2022-10-13T01:18:13.696Z,21.28
2022-10-13T01:19:17.950Z,21.32
2022-10-13T01:20:22.193Z,21.27
2022-10-13T01:21:26.715Z,21.28
2022-10-13T01:22:31.027Z,21.32
2022-10-13T01:23:35.319Z,21.33
2022-10-13T01:24:39.628Z,21.31
2022-10-13T01:25:43.915Z,21.27
2022-10-13T01:26:48.159Z,21.28
2022-10-13T01:27:52.546Z,21.28
2022-10-13T01:28:56.821Z,21.28
2022-10-13T01:30:01.082Z,21.28
2022-10-13T01:31:05.629Z,21.28
2022-10-13T01:32:09.896Z,21.3
2022-10-13T01:33:14.196Z,21.28
2022-10-13T01:34:18.501Z,21.29
2022-10-13T01:35:22.762Z,21.28
2022-10-13T01:36:27.024Z,21.28
2022-10-13T01:37:31.288Z,21.26
2022-10-13T01:38:35.529Z,21.29
2022-10-13T01:39:39.851Z,21.25
2022-10-13T01:40:44.158Z,21.24
2022-10-13T01:41:48.446Z,21.21
2022-10-13T01:42:52.738Z,21.21
2022-10-13T01:43:56.990Z,21.23
2022-10-13T01:45:01.270Z,21.25
2022-10-13T01:46:05.538Z,21.21
2022-10-13T01:47:09.807Z,21.23
2022-10-13T01:48:14.043Z,21.23
2022-10-13T01:49:18.285Z,21.25
2022-10-13T01:50:22.564Z,21.21
2022-10-13T01:51:26.828Z,21.2
2022-10-13T01:52:31.113Z,21.21
2022-10-13T01:53:35.384Z,21.22
2022-10-13T01:54:39.683Z,21.27
2022-10-13T01:55:43.937Z,21.24
2022-10-13T01:56:48.173Z,21.24
2022-10-13T01:57:52.491Z,21.21
2022-10-13T01:58:56.770Z,21.22
2022-10-13T02:00:01.019Z,21.21
2022-10-13T02:01:05.578Z,21.25
2022-10-13T02:02:10.053Z,21.2
2022-10-13T02:03:15.318Z,21.21
2022-10-13T02:04:19.576Z,21.21
2022-10-13T02:05:23.864Z,21.21
2022-10-13T02:06:28.157Z,21.21
2022-10-13T02:07:32.418Z,21.21
2022-10-13T02:08:36.703Z,21.2
2022-10-13T02:09:41.002Z,21.21
2022-10-13T02:10:45.270Z,21.2
2022-10-13T02:11:49.531Z,21.19
2022-10-13T02:12:53.802Z,21.19
2022-10-13T02:13:58.067Z,21.18
2022-10-13T02:15:02.316Z,21.19
2022-10-13T02:16:06.608Z,21.19
2022-10-13T02:17:10.891Z,21.19
2022-10-13T02:18:15.133Z,21.21
2022-10-13T02:19:19.386Z,21.19
2022-10-13T02:20:23.636Z,21.19
2022-10-13T02:21:27.885Z,21.19
2022-10-13T02:22:32.145Z,21.18
2022-10-13T02:23:36.572Z,21.19
2022-10-13T02:24:40.813Z,21.19
2022-10-13T02:25:45.120Z,21.2
2022-10-13T02:26:49.405Z,21.19
2022-10-13T02:27:53.697Z,21.18
2022-10-13T02:28:57.975Z,21.2
2022-10-13T02:30:02.264Z,21.16
2022-10-13T02:31:06.603Z,21.14
2022-10-13T02:32:10.907Z,21.11
2022-10-13T02:33:15.161Z,21.13
2022-10-13T02:34:19.438Z,21.12
2022-10-13T02:35:26.005Z,21.12
2022-10-13T02:36:30.316Z,21.11
2022-10-13T02:37:34.592Z,21.12
2022-10-13T02:38:38.851Z,21.12
2022-10-13T02:39:43.122Z,21.13
2022-10-13T02:40:47.374Z,21.14
2022-10-13T02:41:51.632Z,21.14
2022-10-13T02:42:55.935Z,21.12
2022-10-13T02:44:00.219Z,21.13
2022-10-13T02:45:04.490Z,21.12
2022-10-13T02:46:08.770Z,21.11
2022-10-13T02:47:13.070Z,21.12
2022-10-13T02:48:17.366Z,21.09
2022-10-13T02:49:21.631Z,21.09
2022-10-13T02:50:25.913Z,21.12
2022-10-13T02:51:30.191Z,21.11
2022-10-13T02:52:42.194Z,21.07
2022-10-13T02:53:46.493Z,21.06
2022-10-13T02:54:50.748Z,21.09
2022-10-13T02:55:55.008Z,21.08
2022-10-13T02:56:59.258Z,21.08
2022-10-13T02:58:03.499Z,21.06
2022-10-13T02:59:07.762Z,21.08
2022-10-13T03:00:12.047Z,21.09
2022-10-13T03:01:16.282Z,21.06
2022-10-13T03:02:21.045Z,21.06
2022-10-13T03:03:26.520Z,21.05
2022-10-13T03:04:30.808Z,21.06
2022-10-13T03:05:35.095Z,21.07
2022-10-13T03:06:39.344Z,21.06
2022-10-13T03:07:46.655Z,21.04
2022-10-13T03:08:50.904Z,21.04
2022-10-13T03:09:55.152Z,21.03
2022-10-13T03:10:59.401Z,21.06
2022-10-13T03:12:03.667Z,21.1
2022-10-13T03:13:07.953Z,21.11
2022-10-13T03:14:12.473Z,21.12
2022-10-13T03:15:16.749Z,21.14
2022-10-13T03:16:20.992Z,21.11
2022-10-13T03:17:25.479Z,21.11
2022-10-13T03:18:29.788Z,21.11
2022-10-13T03:19:34.078Z,21.11
2022-10-13T03:20:38.327Z,21.13
2022-10-13T03:21:42.598Z,21.1
2022-10-13T03:22:49.682Z,21.12
2022-10-13T03:23:54.203Z,21.16
2022-10-13T03:24:58.705Z,21.14
2022-10-13T03:26:02.978Z,21.15
2022-10-13T03:27:08.240Z,21.14
2022-10-13T03:28:12.583Z,21.13
2022-10-13T03:29:17.068Z,21.15
2022-10-13T03:30:21.336Z,21.1
2022-10-13T03:31:25.599Z,21.07
2022-10-13T03:32:29.858Z,21.09
2022-10-13T03:33:34.108Z,21.11
2022-10-13T03:34:38.394Z,21.08
2022-10-13T03:35:42.636Z,21.08
2022-10-13T03:36:46.998Z,21.05
2022-10-13T03:37:51.299Z,21.06
2022-10-13T03:38:55.809Z,21.06
2022-10-13T03:40:00.052Z,21.09
2022-10-13T03:41:04.459Z,21.08
2022-10-13T03:42:08.696Z,21.08
2022-10-13T03:43:12.950Z,21.08
2022-10-13T03:44:17.252Z,21.07
2022-10-13T03:45:21.641Z,21.07
2022-10-13T03:46:25.916Z,21.07
2022-10-13T03:47:30.172Z,21.09
2022-10-13T03:48:34.425Z,21.11
2022-10-13T03:49:38.672Z,21.1
2022-10-13T03:50:42.972Z,21.09
2022-10-13T03:51:47.238Z,21.1
2022-10-13T03:52:51.523Z,21.09
2022-10-13T03:53:55.815Z,21.08
2022-10-13T03:55:00.067Z,21.07
2022-10-13T03:56:04.322Z,21.08
2022-10-13T03:57:08.559Z,21.08
2022-10-13T03:58:12.842Z,21.1
2022-10-13T03:59:17.097Z,21.1
2022-10-13T04:00:21.380Z,21.09
2022-10-13T04:01:25.722Z,21.08
2022-10-13T04:02:30.221Z,21.09
2022-10-13T04:03:34.520Z,21.13
2022-10-13T04:04:38.805Z,21.2
2022-10-13T04:05:43.083Z,21.36
2022-10-13T04:06:47.355Z,21.51
2022-10-13T04:07:51.626Z,21.7
2022-10-13T04:08:55.917Z,21.74
2022-10-13T04:10:00.175Z,21.76
2022-10-13T04:11:04.424Z,21.81
2022-10-13T04:12:08.711Z,21.87
2022-10-13T04:13:12.997Z,21.94
2022-10-13T04:14:17.261Z,22.02
2022-10-13T04:15:21.509Z,22.09
2022-10-13T04:16:25.775Z,22.16
2022-10-13T04:17:30.094Z,22.21
2022-10-13T04:18:34.346Z,22.25
2022-10-13T04:19:40.489Z,22.31
2022-10-13T04:20:44.826Z,22.35
2022-10-13T04:21:49.082Z,22.38
2022-10-13T04:22:53.438Z,22.4
2022-10-13T04:23:57.707Z,22.41
2022-10-13T04:25:01.988Z,22.44
2022-10-13T04:26:06.263Z,22.47
2022-10-13T04:27:10.515Z,22.47
2022-10-13T04:28:14.826Z,22.46
2022-10-13T04:29:19.328Z,22.47
2022-10-13T04:30:23.597Z,22.46
2022-10-13T04:31:27.919Z,22.41
2022-10-13T04:32:32.214Z,22.39
2022-10-13T04:33:36.526Z,22.36
2022-10-13T04:34:40.800Z,22.33
2022-10-13T04:35:45.062Z,22.31
2022-10-13T04:36:49.362Z,22.29
2022-10-13T04:37:53.620Z,22.24
2022-10-13T04:38:57.872Z,22.22
2022-10-13T04:40:02.398Z,22.18
2022-10-13T04:41:06.648Z,22.15
2022-10-13T04:42:10.940Z,22.12
2022-10-13T04:43:15.209Z,22.1
2022-10-13T04:44:19.459Z,22.08
2022-10-13T04:45:23.721Z,22.05
2022-10-13T04:46:27.972Z,22.02
2022-10-13T04:47:36.184Z,22
2022-10-13T04:48:41.229Z,21.98
2022-10-13T04:49:45.491Z,21.94
2022-10-13T04:50:49.787Z,21.93
2022-10-13T04:51:54.055Z,21.91
2022-10-13T04:52:58.294Z,21.88
2022-10-13T04:54:02.612Z,21.86
2022-10-13T04:55:06.873Z,21.85
2022-10-13T04:56:11.135Z,21.83
2022-10-13T04:57:15.398Z,21.82
2022-10-13T04:58:19.671Z,21.79
2022-10-13T04:59:23.968Z,21.77
2022-10-13T05:00:28.279Z,21.76
2022-10-13T05:01:32.787Z,21.72
2022-10-13T05:02:37.048Z,21.71
2022-10-13T05:03:41.464Z,21.7
2022-10-13T05:04:45.754Z,21.66
2022-10-13T05:05:50.013Z,21.65
2022-10-13T05:07:16.299Z,21.63
2022-10-13T05:08:22.040Z,21.6
2022-10-13T05:09:26.338Z,21.6
2022-10-13T05:10:34.615Z,21.57
2022-10-13T05:11:39.077Z,21.55
2022-10-13T05:12:43.413Z,21.55
2022-10-13T05:13:47.663Z,21.53
2022-10-13T05:14:51.980Z,21.54
2022-10-13T05:15:56.238Z,21.52
2022-10-13T05:17:00.481Z,21.52
2022-10-13T05:18:07.114Z,21.51
2022-10-13T05:19:11.384Z,21.5
2022-10-13T05:20:15.894Z,21.51
2022-10-13T05:21:20.159Z,21.49
2022-10-13T05:22:24.410Z,21.47
2022-10-13T05:23:28.705Z,21.47
2022-10-13T05:24:32.944Z,21.47
2022-10-13T05:25:37.195Z,21.47
2022-10-13T05:26:41.482Z,21.47
2022-10-13T05:27:45.751Z,21.49
2022-10-13T05:28:50.113Z,21.48
2022-10-13T05:29:54.630Z,21.48
2022-10-13T05:30:58.943Z,21.45
2022-10-13T05:32:03.202Z,21.45
2022-10-13T05:33:07.503Z,21.47
2022-10-13T05:34:11.747Z,21.43
2022-10-13T05:35:16.023Z,21.4
2022-10-13T05:36:20.288Z,21.41
2022-10-13T05:37:24.539Z,21.38
2022-10-13T05:38:28.914Z,21.35
2022-10-13T05:39:33.185Z,21.35
2022-10-13T05:40:37.490Z,21.36
2022-10-13T05:41:41.844Z,21.36
2022-10-13T05:42:46.107Z,21.36
2022-10-13T05:43:50.360Z,21.36
2022-10-13T05:44:54.635Z,21.34
2022-10-13T05:45:58.934Z,21.34
2022-10-13T05:47:07.295Z,21.34
2022-10-13T05:48:11.787Z,21.31
2022-10-13T05:49:16.078Z,21.32
2022-10-13T05:50:20.324Z,21.3
2022-10-13T05:51:24.583Z,21.28
2022-10-13T05:52:28.849Z,21.28
2022-10-13T05:53:33.217Z,21.26
2022-10-13T05:54:40.501Z,21.22
2022-10-13T05:55:44.786Z,21.22
2022-10-13T05:56:49.080Z,21.19
2022-10-13T05:57:53.329Z,21.17
2022-10-13T05:58:57.598Z,21.18
2022-10-13T06:00:01.942Z,21.19
2022-10-13T06:01:06.221Z,21.22
2022-10-13T06:02:10.548Z,21.22
2022-10-13T06:03:15.080Z,21.21
2022-10-13T06:04:19.351Z,21.22
2022-10-13T06:05:23.597Z,21.24
2022-10-13T06:06:31.237Z,21.32
2022-10-13T06:07:35.779Z,21.38
2022-10-13T06:08:40.054Z,21.46
2022-10-13T06:09:44.312Z,21.57
2022-10-13T06:10:48.566Z,21.68
2022-10-13T06:11:52.845Z,21.79
2022-10-13T06:12:57.148Z,21.88
2022-10-13T06:14:01.441Z,21.91
2022-10-13T06:15:05.702Z,21.98
2022-10-13T06:16:09.939Z,22.02
2022-10-13T06:17:14.208Z,22.06
2022-10-13T06:18:18.555Z,22.08
2022-10-13T06:19:22.847Z,22.08
2022-10-13T06:20:27.126Z,22.06
2022-10-13T06:21:31.429Z,22.05
2022-10-13T06:22:35.844Z,22.03
2022-10-13T06:23:40.167Z,22.02
2022-10-13T06:24:44.464Z,22.01
2022-10-13T06:25:48.765Z,21.99
2022-10-13T06:26:53.142Z,21.99
2022-10-13T06:27:57.430Z,21.95
2022-10-13T06:29:01.805Z,21.94
2022-10-13T06:30:06.311Z,21.93
2022-10-13T06:31:10.574Z,21.92
2022-10-13T06:32:14.899Z,21.89
2022-10-13T06:33:19.233Z,21.86
2022-10-13T06:34:23.499Z,21.86
2022-10-13T06:35:27.779Z,21.84
2022-10-13T06:36:32.067Z,21.83
2022-10-13T06:37:36.339Z,21.82
2022-10-13T06:38:40.659Z,21.8
2022-10-13T06:39:44.903Z,21.79
2022-10-13T06:40:49.189Z,21.76
2022-10-13T06:41:53.461Z,21.76
2022-10-13T06:42:57.712Z,21.73
2022-10-13T06:44:01.961Z,21.72
2022-10-13T06:45:06.295Z,21.71
2022-10-13T06:46:10.580Z,21.69
2022-10-13T06:47:14.857Z,21.68
2022-10-13T06:48:19.117Z,21.67
2022-10-13T06:49:23.355Z,21.66
2022-10-13T06:50:27.646Z,21.65
2022-10-13T06:51:31.967Z,21.63
2022-10-13T06:52:36.253Z,21.6
2022-10-13T06:53:40.511Z,21.59
2022-10-13T06:54:44.786Z,21.58
2022-10-13T06:55:52.297Z,21.57
2022-10-13T06:56:56.734Z,21.56
2022-10-13T06:58:01.010Z,21.55
2022-10-13T06:59:05.513Z,21.54
2022-10-13T07:00:09.808Z,21.55
2022-10-13T07:01:14.086Z,21.51
2022-10-13T07:02:18.773Z,21.51
2022-10-13T07:03:24.185Z,21.52
2022-10-13T07:04:28.499Z,21.5
2022-10-13T07:05:32.986Z,21.49
2022-10-13T07:06:37.249Z,21.48
2022-10-13T07:07:41.550Z,21.49
2022-10-13T07:08:45.811Z,21.48
2022-10-13T07:09:50.080Z,21.47
2022-10-13T07:10:54.352Z,21.47
2022-10-13T07:11:58.599Z,21.45
2022-10-13T07:13:02.876Z,21.46
2022-10-13T07:14:07.170Z,21.45
2022-10-13T07:15:11.430Z,21.45
2022-10-13T07:16:15.692Z,21.42
2022-10-13T07:17:20.251Z,21.41
2022-10-13T07:18:25.886Z,21.42
2022-10-13T07:19:30.229Z,21.42
2022-10-13T07:20:34.673Z,21.42
2022-10-13T07:21:39.054Z,21.41
2022-10-13T07:22:43.327Z,21.43
2022-10-13T07:23:47.769Z,21.42
2022-10-13T07:24:52.157Z,21.39
2022-10-13T07:25:56.485Z,21.4
2022-10-13T07:27:03.994Z,21.39
2022-10-13T07:28:11.523Z,21.4
2022-10-13T07:29:15.989Z,21.39
2022-10-13T07:30:20.290Z,21.39
2022-10-13T07:31:24.775Z,21.38
2022-10-13T07:32:29.004Z,21.39
2022-10-13T07:33:33.265Z,21.37
2022-10-13T07:34:37.569Z,21.37
2022-10-13T07:35:41.817Z,21.36
2022-10-13T07:36:46.045Z,21.37
2022-10-13T07:37:50.351Z,21.35
2022-10-13T07:38:54.639Z,21.33
2022-10-13T07:39:58.930Z,21.33
2022-10-13T07:41:03.451Z,21.32
2022-10-13T07:42:07.755Z,21.34
2022-10-13T07:43:12.038Z,21.3
2022-10-13T07:44:16.306Z,21.29
2022-10-13T07:45:20.628Z,21.29
2022-10-13T07:46:24.892Z,21.32
2022-10-13T07:47:29.181Z,21.31
2022-10-13T07:48:33.483Z,21.32
2022-10-13T07:49:37.798Z,21.32
2022-10-13T07:50:42.078Z,21.29
2022-10-13T07:51:46.325Z,21.27
2022-10-13T07:52:50.599Z,21.22
2022-10-13T07:53:54.860Z,21.2
2022-10-13T07:54:59.124Z,21.23
2022-10-13T07:56:03.409Z,21.19
2022-10-13T07:57:07.726Z,21.2
2022-10-13T07:58:11.982Z,21.18
2022-10-13T07:59:16.250Z,21.17
2022-10-13T08:00:20.560Z,21.18
2022-10-13T08:01:24.925Z,21.15
2022-10-13T08:02:29.402Z,21.15
2022-10-13T08:03:33.698Z,21.15
2022-10-13T08:04:37.986Z,21.14
2022-10-13T08:05:42.277Z,21.17
2022-10-13T08:06:46.572Z,21.2
2022-10-13T08:07:53.459Z,21.27
2022-10-13T08:09:02.039Z,21.29
2022-10-13T08:10:06.336Z,21.33
2022-10-13T08:11:11.397Z,21.38
2022-10-13T08:12:20.552Z,21.43
2022-10-13T08:13:25.492Z,21.5
2022-10-13T08:14:29.923Z,21.55
2022-10-13T08:15:34.843Z,21.59
2022-10-13T08:16:39.095Z,21.64
2022-10-13T08:17:43.402Z,21.68
2022-10-13T08:18:47.669Z,21.7
2022-10-13T08:19:51.912Z,21.71
2022-10-13T08:21:10.820Z,21.73
2022-10-13T08:23:02.628Z,21.74
2022-10-13T08:24:06.906Z,21.74
2022-10-13T08:25:11.190Z,21.74
2022-10-13T08:26:15.559Z,21.72
2022-10-13T08:27:20.254Z,21.7
2022-10-13T08:28:25.904Z,21.7
2022-10-13T08:29:30.406Z,21.69
2022-10-13T08:30:34.969Z,21.7
2022-10-13T08:31:40.071Z,21.7
2022-10-13T08:32:45.055Z,21.68
2022-10-13T08:33:49.331Z,21.66
2022-10-13T08:34:53.580Z,21.65
2022-10-13T08:36:00.990Z,21.62
2022-10-13T08:37:05.265Z,21.62
2022-10-13T08:38:09.576Z,21.61
2022-10-13T08:39:13.883Z,21.6
2022-10-13T08:40:18.295Z,21.59
2022-10-13T08:41:22.591Z,21.58
2022-10-13T08:42:26.873Z,21.58
2022-10-13T08:43:31.132Z,21.58
2022-10-13T08:46:43.812Z,21.56
2022-10-13T08:47:48.125Z,21.55
2022-10-13T08:48:52.437Z,21.55
2022-10-13T08:50:00.207Z,21.52
2022-10-13T08:51:04.751Z,21.52
2022-10-13T08:52:09.021Z,21.53
2022-10-13T08:53:13.297Z,21.51
2022-10-13T08:54:17.554Z,21.5
2022-10-13T08:55:21.834Z,21.52
2022-10-13T08:56:26.120Z,21.49
2022-10-13T08:57:30.399Z,21.5
2022-10-13T08:58:34.669Z,21.48
2022-10-13T08:59:38.907Z,21.45
2022-10-13T09:00:43.214Z,21.43
2022-10-13T09:01:47.538Z,21.38
2022-10-13T09:02:51.975Z,21.36
2022-10-13T09:03:56.226Z,21.33
2022-10-13T09:05:00.493Z,21.31
2022-10-13T09:06:04.801Z,21.31
2022-10-13T09:07:09.083Z,21.3
2022-10-13T09:08:13.386Z,21.31
2022-10-13T09:09:17.698Z,21.26
2022-10-13T09:10:21.961Z,21.25
2022-10-13T09:11:26.281Z,21.25
2022-10-13T09:12:30.564Z,21.22
2022-10-13T09:13:34.836Z,21.21
2022-10-13T09:14:39.120Z,21.19
2022-10-13T09:15:43.427Z,21.17
2022-10-13T09:16:47.707Z,21.17
2022-10-13T09:17:52.011Z,21.15
2022-10-13T09:18:56.271Z,21.15
2022-10-13T09:20:00.550Z,21.15
2022-10-13T09:21:04.912Z,21.14
2022-10-13T09:22:11.435Z,21.11
2022-10-13T09:23:15.694Z,21.12
2022-10-13T09:24:22.950Z,21.07
2022-10-13T09:25:27.205Z,21.07
2022-10-13T09:26:31.502Z,21.08
2022-10-13T09:27:35.801Z,21.07
2022-10-13T09:28:40.118Z,21.04
2022-10-13T09:29:44.563Z,21.03
2022-10-13T09:30:48.836Z,21.01
2022-10-13T09:31:53.129Z,20.98
2022-10-13T09:32:57.435Z,20.96
2022-10-13T09:34:01.733Z,20.96
2022-10-13T09:35:09.163Z,20.95
2022-10-13T09:36:14.582Z,20.97
2022-10-13T09:37:18.854Z,20.95
2022-10-13T09:38:23.097Z,20.98
2022-10-13T09:39:27.383Z,20.97
2022-10-13T09:40:31.653Z,20.96
2022-10-13T09:41:36.096Z,20.96
2022-10-13T09:42:40.387Z,20.94
2022-10-13T09:43:44.632Z,20.91
2022-10-13T09:44:48.951Z,20.92
2022-10-13T09:45:53.225Z,20.91
2022-10-13T09:46:57.518Z,20.89
2022-10-13T09:48:01.779Z,20.91
2022-10-13T09:49:06.051Z,20.9
2022-10-13T09:50:10.313Z,20.87
2022-10-13T09:51:16.997Z,20.88
2022-10-13T09:52:21.464Z,20.84
2022-10-13T09:53:26.508Z,20.86
2022-10-13T09:54:30.852Z,20.86
2022-10-13T09:55:35.156Z,20.86
2022-10-13T09:56:39.437Z,20.85
2022-10-13T09:57:43.738Z,20.84
2022-10-13T09:58:48.013Z,20.85
2022-10-13T09:59:52.361Z,20.85
2022-10-13T10:00:56.877Z,20.84
2022-10-13T10:02:01.164Z,20.84
2022-10-13T10:03:05.419Z,20.86
2022-10-13T10:04:09.706Z,20.84
2022-10-13T10:05:14.237Z,20.83
2022-10-13T10:06:19.047Z,20.83
2022-10-13T10:07:30.085Z,20.82
2022-10-13T10:08:51.233Z,20.83
2022-10-13T10:10:07.862Z,20.82
2022-10-13T10:11:12.119Z,20.79
2022-10-13T10:12:16.426Z,20.8
2022-10-13T10:13:21.694Z,20.8
2022-10-13T10:14:25.989Z,20.82
2022-10-13T10:15:30.272Z,20.81
2022-10-13T10:16:34.629Z,20.81
2022-10-13T10:17:38.881Z,20.8
2022-10-13T10:18:43.166Z,20.81
2022-10-13T10:19:47.596Z,20.81
2022-10-13T10:20:51.898Z,20.81
2022-10-13T10:21:56.168Z,20.8
2022-10-13T10:23:00.452Z,20.81
2022-10-13T10:24:04.741Z,20.79
2022-10-13T10:25:09.043Z,20.81
2022-10-13T10:26:13.315Z,20.79
2022-10-13T10:27:26.584Z,20.8
2022-10-13T10:28:31.011Z,20.79
2022-10-13T10:29:35.405Z,20.78
2022-10-13T10:30:39.699Z,20.79
2022-10-13T10:31:43.967Z,20.79
2022-10-13T10:32:48.220Z,20.79
2022-10-13T10:33:52.520Z,20.78
2022-10-13T10:34:56.783Z,20.76
2022-10-13T10:36:01.085Z,20.78
2022-10-13T10:37:05.387Z,20.77
2022-10-13T10:38:09.659Z,20.77
2022-10-13T10:39:13.922Z,20.76
2022-10-13T10:40:18.182Z,20.74
2022-10-13T10:41:22.518Z,20.74
2022-10-13T10:42:26.795Z,20.75
2022-10-13T10:43:31.087Z,20.73
2022-10-13T10:44:35.394Z,20.74
2022-10-13T10:45:39.802Z,20.74
2022-10-13T10:46:44.101Z,20.73
2022-10-13T10:47:48.365Z,20.7
2022-10-13T10:48:52.623Z,20.69
2022-10-13T10:49:56.868Z,20.69
2022-10-13T10:51:01.150Z,20.7
2022-10-13T10:52:05.486Z,20.71
2022-10-13T10:53:09.758Z,20.7
2022-10-13T10:54:14.055Z,20.72
2022-10-13T10:55:18.320Z,20.71
2022-10-13T10:56:22.594Z,20.72
2022-10-13T10:57:27.154Z,20.72
2022-10-13T10:58:31.404Z,20.73
2022-10-13T10:59:37.051Z,20.75
2022-10-13T11:00:41.332Z,20.73
2022-10-13T11:01:45.632Z,20.73
2022-10-13T11:02:50.078Z,20.71
2022-10-13T11:03:54.468Z,20.71
2022-10-13T11:05:01.945Z,20.71
2022-10-13T11:06:10.030Z,20.7
2022-10-13T11:07:14.304Z,20.69
2022-10-13T11:08:18.867Z,20.71
2022-10-13T11:09:23.190Z,20.71
2022-10-13T11:10:27.494Z,20.7
2022-10-13T11:11:35.015Z,20.71
2022-10-13T11:12:41.574Z,20.7
2022-10-13T11:13:45.855Z,20.69
2022-10-13T11:14:50.159Z,20.69
2022-10-13T11:15:54.424Z,20.7
2022-10-13T11:16:58.761Z,20.71
2022-10-13T11:18:02.995Z,20.71
2022-10-13T11:19:07.273Z,20.7
2022-10-13T11:20:11.517Z,20.71
2022-10-13T11:21:15.801Z,20.72
2022-10-13T11:22:20.247Z,20.73
2022-10-13T11:23:26.167Z,20.7
2022-10-13T11:24:30.466Z,20.69
2022-10-13T11:25:34.926Z,20.68
2022-10-13T11:26:39.183Z,20.72
2022-10-13T11:27:44.508Z,20.71
2022-10-13T11:28:48.847Z,20.72
2022-10-13T11:29:53.299Z,20.73
2022-10-13T11:30:57.566Z,20.72
2022-10-13T11:32:01.841Z,20.73
2022-10-13T11:33:06.078Z,20.72
2022-10-13T11:34:10.374Z,20.73
2022-10-13T11:35:14.935Z,20.75
2022-10-13T11:36:19.203Z,20.74
2022-10-13T11:37:23.471Z,20.72
2022-10-13T11:38:27.738Z,20.71
2022-10-13T11:39:32.024Z,20.7
2022-10-13T11:40:36.329Z,20.71
2022-10-13T11:41:40.591Z,20.72
2022-10-13T11:42:47.883Z,20.72
2022-10-13T11:43:52.479Z,20.71
2022-10-13T11:44:56.764Z,20.73
2022-10-13T11:46:01.072Z,20.74
2022-10-13T11:47:05.329Z,20.74
2022-10-13T11:49:13.929Z,20.73
2022-10-13T11:50:18.207Z,20.74
2022-10-13T11:51:22.524Z,20.75
2022-10-13T11:52:26.781Z,20.75
2022-10-13T11:53:31.024Z,20.75
2022-10-13T11:54:35.292Z,20.76
2022-10-13T11:55:39.570Z,20.77
2022-10-13T11:56:48.591Z,20.76
2022-10-13T11:57:53.051Z,20.76
2022-10-13T11:58:57.321Z,20.78
2022-10-13T12:00:01.613Z,20.79
2022-10-13T12:01:05.856Z,20.79
2022-10-13T12:02:10.139Z,20.79
2022-10-13T12:03:14.450Z,20.77
2022-10-13T12:04:18.952Z,20.78
2022-10-13T12:05:23.245Z,20.75
2022-10-13T12:06:27.524Z,20.76
2022-10-13T12:07:31.791Z,20.78
2022-10-13T12:08:36.067Z,20.79
2022-10-13T12:09:40.327Z,20.81
2022-10-13T12:10:44.585Z,20.83
2022-10-13T12:11:48.919Z,20.86
2022-10-13T12:12:53.419Z,20.86
2022-10-13T12:13:57.693Z,20.88
2022-10-13T12:15:04.123Z,20.88
2022-10-13T12:16:11.245Z,20.88
2022-10-13T12:17:17.229Z,20.88
2022-10-13T12:18:28.367Z,20.89
2022-10-13T12:19:32.628Z,20.89
2022-10-13T12:20:36.890Z,20.88
2022-10-13T12:21:41.175Z,20.9
2022-10-13T12:22:45.440Z,20.89
2022-10-13T12:23:49.712Z,20.89
2022-10-13T12:24:54.042Z,20.9
2022-10-13T12:25:58.337Z,20.91
2022-10-13T12:27:02.644Z,20.92
2022-10-13T12:28:06.966Z,20.92
2022-10-13T12:29:11.236Z,20.92
2022-10-13T12:30:17.732Z,20.91
2022-10-13T12:31:22.011Z,20.92
2022-10-13T12:32:26.265Z,20.92
2022-10-13T12:33:30.512Z,20.93
2022-10-13T12:34:34.784Z,20.94
2022-10-13T12:35:39.077Z,20.93
2022-10-13T12:36:43.409Z,20.94
2022-10-13T12:37:47.843Z,20.95
2022-10-13T12:38:52.109Z,20.96
2022-10-13T12:39:56.441Z,20.96
2022-10-13T12:41:00.716Z,20.98
2022-10-13T12:42:04.991Z,20.98
2022-10-13T12:43:09.274Z,20.97
2022-10-13T12:44:13.577Z,20.98
2022-10-13T12:45:17.871Z,20.97
2022-10-13T12:46:22.174Z,20.96
2022-10-13T12:47:26.426Z,20.98
2022-10-13T12:48:30.670Z,20.95
2022-10-13T12:49:34.938Z,20.97
2022-10-13T12:50:39.232Z,20.98
2022-10-13T12:51:43.488Z,20.97
2022-10-13T12:52:47.802Z,20.97
2022-10-13T12:53:52.114Z,20.95
2022-10-13T12:54:56.398Z,20.94
2022-10-13T12:56:00.702Z,20.93
2022-10-13T12:57:04.995Z,20.94
2022-10-13T12:58:09.301Z,20.94
2022-10-13T12:59:13.538Z,20.93
2022-10-13T13:00:18.054Z,20.94
2022-10-13T13:01:22.450Z,20.93
2022-10-13T13:02:26.882Z,20.93
2022-10-13T13:03:31.256Z,20.93
2022-10-13T13:04:35.571Z,20.93
2022-10-13T13:05:39.885Z,20.92
2022-10-13T13:06:44.224Z,20.93
2022-10-13T13:07:48.513Z,20.93
2022-10-13T13:08:52.787Z,20.92
2022-10-13T13:09:57.044Z,20.92
2022-10-13T13:11:01.314Z,20.93
2022-10-13T13:12:05.616Z,20.92
2022-10-13T13:13:10.146Z,20.91
2022-10-13T13:14:14.425Z,20.92
2022-10-13T13:15:18.707Z,20.9
2022-10-13T13:16:22.976Z,20.91
2022-10-13T13:17:45.721Z,20.91
2022-10-13T13:19:02.464Z,20.91
2022-10-13T13:20:06.738Z,20.9
2022-10-13T13:21:11.004Z,20.91
2022-10-13T13:22:15.268Z,20.91
2022-10-13T13:23:19.782Z,20.91
2022-10-13T13:24:35.745Z,20.9
2022-10-13T13:25:44.172Z,20.9
2022-10-13T13:26:48.462Z,20.89
2022-10-13T13:27:52.748Z,20.86
2022-10-13T13:28:57.020Z,20.89
2022-10-13T13:30:01.270Z,20.9
2022-10-13T13:31:05.649Z,20.9
2022-10-13T13:32:09.962Z,20.9
2022-10-13T13:33:14.276Z,20.9
2022-10-13T13:34:19.847Z,20.89
2022-10-13T13:35:27.879Z,20.9
2022-10-13T13:36:32.162Z,20.9
2022-10-13T13:37:36.452Z,20.89
2022-10-13T13:38:40.740Z,20.89
2022-10-13T13:39:45.028Z,20.9
2022-10-13T13:40:49.338Z,20.91
2022-10-13T13:41:53.601Z,20.91
2022-10-13T13:42:57.924Z,20.92
2022-10-13T13:44:02.258Z,20.93
2022-10-13T13:45:06.538Z,20.93
2022-10-13T13:46:10.789Z,20.93
2022-10-13T13:47:15.056Z,20.93
2022-10-13T13:48:19.715Z,20.94
2022-10-13T13:49:24.012Z,20.94
2022-10-13T13:50:28.291Z,20.93
2022-10-13T13:51:32.563Z,20.94
2022-10-13T13:52:36.892Z,20.95
2022-10-13T13:53:41.150Z,20.94
2022-10-13T13:54:45.495Z,20.95
2022-10-13T13:55:49.770Z,20.95
2022-10-13T13:56:57.985Z,20.95
2022-10-13T13:58:05.242Z,20.98
2022-10-13T13:59:09.501Z,20.97
2022-10-13T14:00:13.815Z,20.98